Calumet Park, IL (60827)

5:21 AM CDT on September 16, 2014 (GMT -0500)
Morgan Park | Change Station
CLOSE
Current Station
Personal Weather Station
Location: Chicago, IL
Elevation: 616 ft
Nearby Weather Stations

Elev 616 ft 41.69 °N, 87.69 °W | Updated 1 minute ago

Mostly Cloudy
Mostly Cloudy
47.7 °F
Feels Like 48 °F
N
0.0
Wind Variable Wind from NW
Gusts 0.0 mph

Today
High -- | Low -- °F
--% Chance of Precip.
Yesterday
High -- | Low -- °F
Precip. -- in
6:31 AM 6:58 PM
Waning Gibbous, 47% visible
Pressure 30.19 in
Visibility 10.0 miles
Clouds Scattered Clouds 3200 ft
Windchill 48 °F
Dew Point 46 °F
Humidity 94%
Rainfall 0.00 in
Snow Depth Not available.
UV 0.0 out of 12
Pollen 4.50 out of 12
Ozone Good
PM2.5 Moderate
Flu Activity Not available.
METAR KIGQ 161015Z AUTO 32004KT 10SM SCT032 09/09 A3019 RMK AO2 T00930085

More Conditions Fewer Conditions

Pressure 30.19 in
Visibility 10.0 miles
Clouds Scattered Clouds 3200 ft
Windchill 48 °F
Dew Point 46 °F
Humidity 94%
Rainfall 0.00 in
Snow Depth Not available.
UV 0.0 out of 12
Pollen 4.50 out of 12
Ozone Good
PM2.5 Moderate
Flu Activity Not available.
METAR KIGQ 161015Z AUTO 32004KT 10SM SCT032 09/09 A3019 RMK AO2 T00930085

More Conditions Fewer Conditions

10-Day Weather Forecast

Almanac

Astronomy

Sep. 16, 2014 Rise Set
Actual Time 6:31 AM CDT 6:58 PM CDT
Civil Twilight 6:03 AM CDT 7:25 PM CDT
Nautical Twilight 5:31 AM CDT 7:58 PM CDT
Astronomical Twilight 4:57 AM CDT 8:32 PM CDT
Moon No Moon Rise 2:24 PM CDT
Length of Visible Light 13h 21m
Length of Day
12h 26m
Tomorrow will be 2m 45s shorter.
Waning Gibbous, 47% of the Moon is Illuminated
Today
Waning Gibbous
Sep 24
New
Oct 1
First Quarter
Oct 8
Full
Oct 15
Last Quarter

Today's Extremes

State Highs State Lows

Community

WunderPhotos

Upload Photos

1,753,718 photos uploaded!

WunderBlogs® & News

Nearby

Air Quality

  Air Quality AQ Index Pollutant
Yesterday Good
PM2.5
Yesterday Good
OZONE
Current Moderate
PM2.5
Current Good
OZONE
Tuesday Good
PM2.5
Wednesday Good
PM2.5
Thursday Moderate
PM2.5
Friday Moderate
PM2.5

Snow Depth

Station Depth Elevation
No new snow has been reported.

Earthquake Activity

City Distance Mag. Time & Date
No recent earthquake activity has been reported nearby.
Minimum magnitude displayed is 2.5.

Coastal Water Temperatures

Place Temperature
No Stations Reporting

Nearby Weather Stations